createdAt,value
2019-02-18T00:04:16.006Z,14.58
2019-02-18T00:09:22.240Z,12.90
2019-02-18T00:14:28.451Z,13.50
2019-02-18T00:19:34.758Z,15.37
2019-02-18T00:24:41.020Z,16.80
2019-02-18T00:29:47.407Z,16.77
2019-02-18T00:34:53.726Z,14.00
2019-02-18T00:39:59.943Z,13.00
2019-02-18T00:45:06.656Z,14.23
2019-02-18T00:50:13.217Z,16.00
2019-02-18T00:55:19.420Z,14.57
2019-02-18T01:00:25.642Z,13.47
2019-02-18T01:05:31.860Z,12.93
2019-02-18T01:10:38.052Z,16.40
2019-02-18T01:15:44.347Z,14.63
2019-02-18T01:20:50.525Z,16.87
2019-02-18T01:25:56.837Z,13.73
2019-02-18T01:31:03.106Z,11.97
2019-02-18T01:36:09.331Z,13.40
2019-02-18T01:41:15.548Z,14.23
2019-02-18T01:46:21.853Z,12.93
2019-02-18T01:51:28.114Z,13.47
2019-02-18T01:56:34.458Z,11.83
2019-02-18T02:01:40.690Z,15.17
2019-02-18T02:06:46.919Z,14.20
2019-02-18T02:11:53.251Z,16.33
2019-02-18T02:17:00.727Z,14.75
2019-02-18T02:22:07.086Z,14.03
2019-02-18T02:27:13.409Z,11.65
2019-02-18T02:32:19.639Z,12.87
2019-02-18T02:37:25.999Z,11.70
2019-02-18T02:42:32.178Z,13.60
2019-02-18T02:47:38.480Z,13.13
2019-02-18T02:52:44.663Z,13.30
2019-02-18T02:57:50.893Z,13.43
2019-02-18T03:02:57.106Z,14.47
2019-02-18T03:08:04.520Z,14.60
2019-02-18T03:13:10.842Z,11.53
2019-02-18T03:18:17.025Z,10.83
2019-02-18T03:23:23.273Z,11.43
2019-02-18T03:29:22.255Z,12.18
2019-02-18T03:34:38.364Z,13.48
2019-02-18T03:39:44.566Z,13.65
2019-02-18T03:44:50.876Z,14.43
2019-02-18T03:49:57.102Z,13.97
2019-02-18T03:55:03.461Z,13.72
2019-02-18T04:00:10.098Z,14.50
2019-02-18T04:05:16.383Z,16.05
2019-02-18T04:10:22.596Z,13.13
2019-02-18T04:15:28.895Z,13.67
2019-02-18T04:20:35.112Z,12.17
2019-02-18T04:25:41.337Z,12.87
2019-02-18T04:30:47.550Z,11.87
2019-02-18T04:35:53.937Z,12.67
2019-02-18T04:41:00.554Z,12.67
2019-02-18T04:46:06.829Z,11.33
2019-02-18T04:51:13.111Z,12.47
2019-02-18T04:56:19.392Z,11.08
2019-02-18T05:01:25.603Z,12.75
2019-02-18T05:06:31.809Z,11.07
2019-02-18T05:11:38.082Z,14.03
2019-02-18T05:16:44.356Z,13.07
2019-02-18T05:21:50.574Z,13.10
2019-02-18T05:26:56.809Z,12.60
2019-02-18T05:32:03.046Z,14.20
2019-02-18T05:37:09.339Z,12.53
2019-02-18T05:42:15.525Z,13.03
2019-02-18T05:47:21.757Z,16.63
2019-02-18T05:52:28.036Z,17.53
2019-02-18T05:57:34.202Z,16.42
2019-02-18T06:02:40.431Z,15.73
2019-02-18T06:07:46.656Z,12.83
2019-02-18T06:12:52.830Z,11.90
2019-02-18T06:17:59.064Z,17.57
2019-02-18T06:23:05.501Z,17.10
2019-02-18T06:28:11.982Z,13.78
2019-02-18T06:33:18.474Z,16.47
2019-02-18T06:38:24.687Z,19.10
2019-02-18T06:43:31.012Z,14.10
2019-02-18T06:48:40.034Z,15.25
2019-02-18T06:53:46.419Z,18.37
2019-02-18T06:59:00.302Z,15.93
2019-02-18T07:04:20.700Z,12.13
2019-02-18T07:09:51.354Z,16.57
2019-02-18T07:14:52.820Z,18.20
2019-02-18T07:20:01.333Z,20.07
2019-02-18T07:25:30.455Z,17.53
2019-02-18T07:30:36.764Z,18.57
2019-02-18T07:35:43.334Z,20.33
2019-02-18T07:40:49.544Z,18.07
2019-02-18T07:45:56.146Z,17.70
2019-02-18T07:51:02.534Z,19.97
2019-02-18T07:56:08.852Z,22.00
2019-02-18T08:01:15.434Z,30.60
2019-02-18T08:06:21.686Z,26.53
2019-02-18T08:11:28.066Z,18.17
2019-02-18T08:16:34.496Z,22.07
2019-02-18T08:21:40.774Z,19.20
2019-02-18T08:26:47.041Z,13.97
2019-02-18T08:31:53.426Z,17.20
2019-02-18T08:36:59.816Z,15.37
2019-02-18T08:42:06.107Z,14.17
2019-02-18T08:47:12.443Z,15.50
2019-02-18T08:52:18.770Z,12.67
2019-02-18T08:57:25.089Z,13.83
2019-02-18T09:02:31.516Z,14.10
2019-02-18T09:07:38.102Z,14.73
2019-02-18T09:12:44.465Z,12.87
2019-02-18T09:17:50.784Z,15.25
2019-02-18T09:23:06.291Z,14.93
2019-02-18T09:28:12.708Z,10.63
2019-02-18T09:33:21.118Z,14.10
2019-02-18T09:38:29.157Z,11.33
2019-02-18T09:43:35.554Z,10.28
2019-02-18T09:48:41.898Z,10.27
2019-02-18T09:53:48.200Z,11.53
2019-02-18T09:58:58.953Z,14.60
2019-02-18T10:04:05.738Z,12.35
2019-02-18T10:09:15.552Z,9.07
2019-02-18T10:14:21.986Z,11.97
2019-02-18T10:19:28.315Z,10.47
2019-02-18T10:24:34.584Z,12.50
2019-02-18T10:29:43.965Z,11.33
2019-02-18T10:34:50.610Z,11.87
2019-02-18T10:39:59.669Z,13.00
2019-02-18T10:45:10.313Z,9.93
2019-02-18T10:50:18.705Z,11.95
2019-02-18T10:55:31.276Z,11.07
2019-02-18T11:00:41.235Z,11.17
2019-02-18T11:05:47.602Z,14.07
2019-02-18T11:10:56.120Z,12.20
2019-02-18T11:16:02.328Z,12.37
2019-02-18T11:21:11.115Z,11.53
2019-02-18T11:26:17.864Z,13.03
2019-02-18T11:31:24.116Z,12.83
2019-02-18T11:36:30.359Z,11.60
2019-02-18T11:41:36.941Z,14.57
2019-02-18T11:46:43.436Z,12.87
2019-02-18T11:51:55.571Z,13.37
2019-02-18T11:57:03.784Z,11.80
2019-02-18T12:02:10.066Z,13.80
2019-02-18T12:07:16.903Z,14.63
2019-02-18T12:12:23.410Z,12.93
2019-02-18T12:17:30.988Z,13.07
2019-02-18T12:22:39.218Z,14.55
2019-02-18T12:27:46.872Z,11.40
2019-02-18T12:32:53.112Z,14.27
2019-02-18T12:37:59.426Z,12.57
2019-02-18T12:43:05.924Z,10.53
2019-02-18T12:48:14.885Z,12.23
2019-02-18T12:53:24.405Z,10.13
2019-02-18T12:58:32.026Z,10.87
2019-02-18T13:03:38.460Z,9.33
2019-02-18T13:08:44.775Z,9.40
2019-02-18T13:13:51.121Z,8.20
2019-02-18T13:18:59.943Z,8.83
2019-02-18T13:24:06.418Z,8.93
2019-02-18T13:29:16.710Z,10.73
2019-02-18T13:34:25.920Z,9.30
2019-02-18T13:39:34.236Z,10.83
2019-02-18T13:44:40.602Z,9.27
2019-02-18T13:49:49.454Z,11.13
2019-02-18T13:54:55.799Z,10.55
2019-02-18T14:00:04.676Z,16.57
2019-02-18T14:05:11.992Z,8.43
2019-02-18T14:10:19.575Z,11.57
2019-02-18T14:15:25.964Z,10.07
2019-02-18T14:20:32.685Z,10.23
2019-02-18T14:25:39.122Z,9.80
2019-02-18T14:30:45.477Z,10.27
2019-02-18T14:35:52.768Z,14.13
2019-02-18T14:41:01.279Z,11.37
2019-02-18T14:46:09.332Z,11.93
2019-02-18T14:51:15.793Z,9.47
2019-02-18T14:56:22.253Z,11.17
2019-02-18T15:01:28.537Z,11.30
2019-02-18T15:06:37.497Z,11.47
2019-02-18T15:11:44.877Z,10.17
2019-02-18T15:16:51.317Z,10.63
2019-02-18T15:22:01.850Z,12.13
2019-02-18T15:27:08.646Z,9.53
2019-02-18T15:32:14.976Z,11.53
2019-02-18T15:37:21.512Z,12.23
2019-02-18T15:42:28.238Z,12.70
2019-02-18T15:47:34.613Z,10.70
2019-02-18T15:52:41.052Z,10.80
2019-02-18T15:57:47.749Z,11.13
2019-02-18T16:02:56.824Z,13.77
2019-02-18T16:08:03.237Z,11.20
2019-02-18T16:13:09.609Z,11.30
2019-02-18T16:18:16.058Z,13.90
2019-02-18T16:23:22.356Z,10.73
2019-02-18T16:28:29.292Z,13.45
2019-02-18T16:33:36.796Z,13.63
2019-02-18T16:38:43.144Z,10.60
2019-02-18T16:43:51.413Z,13.13
2019-02-18T16:48:58.161Z,20.73
2019-02-18T16:54:05.755Z,16.67
2019-02-18T16:59:12.182Z,19.40
2019-02-18T17:04:18.954Z,19.98
2019-02-18T17:09:25.284Z,16.07
2019-02-18T17:14:31.695Z,13.70
2019-02-18T17:19:39.821Z,14.40
2019-02-18T17:24:46.879Z,21.43
2019-02-18T17:29:53.199Z,19.13
2019-02-18T17:35:00.005Z,17.03
2019-02-18T17:40:06.875Z,15.83
2019-02-18T17:45:13.867Z,17.50
2019-02-18T17:50:21.274Z,15.40
2019-02-18T17:55:27.621Z,15.30
2019-02-18T18:00:34.859Z,16.17
2019-02-18T18:05:41.385Z,17.30
2019-02-18T18:10:47.883Z,27.90
2019-02-18T18:15:55.280Z,18.93
2019-02-18T18:21:02.984Z,19.02
2019-02-18T18:26:12.654Z,16.07
2019-02-18T18:31:19.511Z,15.07
2019-02-18T18:36:25.843Z,17.45
2019-02-18T18:41:32.166Z,13.37
2019-02-18T18:46:41.337Z,14.30
2019-02-18T18:51:50.456Z,14.03
2019-02-18T18:56:57.032Z,17.03
2019-02-18T19:02:06.836Z,17.02
2019-02-18T19:07:13.176Z,14.20
2019-02-18T19:12:19.515Z,14.40
2019-02-18T19:17:26.131Z,14.47
2019-02-18T19:22:33.000Z,14.70
2019-02-18T19:27:39.424Z,16.80
2019-02-18T19:32:48.359Z,14.93
2019-02-18T19:37:55.956Z,16.30
2019-02-18T19:43:02.673Z,13.43
2019-02-18T19:48:10.304Z,14.07
2019-02-18T19:53:16.527Z,13.87
2019-02-18T19:58:23.324Z,13.27
2019-02-18T20:03:29.679Z,14.67
2019-02-18T20:08:36.549Z,14.10
2019-02-18T20:13:43.061Z,13.37
2019-02-18T20:18:51.311Z,13.40
2019-02-18T20:23:57.597Z,14.15
2019-02-18T20:29:04.212Z,17.07
2019-02-18T20:34:11.017Z,15.10
2019-02-18T20:39:17.399Z,13.83
2019-02-18T20:44:23.839Z,17.25
2019-02-18T20:49:30.071Z,13.80
2019-02-18T20:54:36.371Z,14.00
2019-02-18T20:59:42.723Z,12.13
2019-02-18T21:04:50.476Z,15.13
2019-02-18T21:09:58.673Z,13.83
2019-02-18T21:15:05.794Z,15.37
2019-02-18T21:20:12.735Z,13.07
2019-02-18T21:25:20.173Z,11.90
2019-02-18T21:30:26.474Z,13.27
2019-02-18T21:35:32.788Z,12.13
2019-02-18T21:40:39.161Z,12.27
2019-02-18T21:45:46.022Z,13.30
2019-02-18T21:50:52.699Z,19.20
2019-02-18T21:55:59.038Z,13.60
2019-02-18T22:01:05.424Z,13.43
2019-02-18T22:06:11.859Z,15.67
2019-02-18T22:11:18.448Z,14.50
2019-02-18T22:16:24.643Z,15.87
2019-02-18T22:21:33.005Z,12.10
2019-02-18T22:26:39.411Z,11.18
2019-02-18T22:31:45.642Z,12.13
2019-02-18T22:36:51.988Z,10.90
2019-02-18T22:41:58.276Z,11.57
2019-02-18T22:47:05.858Z,16.77
2019-02-18T22:52:12.108Z,13.17
2019-02-18T22:57:21.276Z,9.83
2019-02-18T23:02:27.735Z,11.03
2019-02-18T23:07:34.216Z,11.40
2019-02-18T23:12:40.598Z,9.83
2019-02-18T23:17:46.854Z,12.37
2019-02-18T23:22:56.156Z,10.90
2019-02-18T23:28:02.420Z,14.47
2019-02-18T23:33:09.084Z,11.80
2019-02-18T23:38:15.411Z,12.50
2019-02-18T23:43:24.447Z,13.33
2019-02-18T23:48:30.713Z,13.67
2019-02-18T23:53:36.943Z,13.83
2019-02-18T23:58:43.193Z,11.80
